createdAt,value
2023-03-15T00:01:54.619Z,12.20
2023-03-15T00:04:26.286Z,9.85
2023-03-15T00:06:56.327Z,16.65
2023-03-15T00:09:29.173Z,9.30
2023-03-15T00:11:59.050Z,15.52
2023-03-15T00:14:29.067Z,10.35
2023-03-15T00:16:58.899Z,12.77
2023-03-15T00:19:29.107Z,12.95
2023-03-15T00:21:58.946Z,14.27
2023-03-15T00:24:31.475Z,7.97
2023-03-15T00:27:01.317Z,9.05
2023-03-15T00:29:31.176Z,15.35
2023-03-15T00:32:01.953Z,13.23
2023-03-15T00:34:31.809Z,14.65
2023-03-15T00:37:01.716Z,17.42
2023-03-15T00:39:37.892Z,12.57
2023-03-15T00:42:08.209Z,18.02
2023-03-15T00:44:38.108Z,10.23
2023-03-15T00:47:08.097Z,8.95
2023-03-15T00:49:37.977Z,11.30
2023-03-15T00:52:08.838Z,15.65
2023-03-15T00:54:41.887Z,17.15
2023-03-15T00:57:12.004Z,15.38
2023-03-15T00:59:41.834Z,13.43
2023-03-15T01:02:11.949Z,10.07
2023-03-15T01:04:41.951Z,13.10
2023-03-15T01:07:12.193Z,12.80
2023-03-15T01:09:45.847Z,13.50
2023-03-15T01:12:17.269Z,12.40
2023-03-15T01:14:47.137Z,12.27
2023-03-15T01:17:17.017Z,8.52
2023-03-15T01:19:46.906Z,13.52
2023-03-15T01:22:17.006Z,16.65
2023-03-15T01:24:49.737Z,14.82
2023-03-15T01:27:19.637Z,11.82
2023-03-15T01:29:49.509Z,14.57
2023-03-15T01:32:19.404Z,11.65
2023-03-15T01:34:49.527Z,10.15
2023-03-15T01:37:19.414Z,10.13
2023-03-15T01:39:52.254Z,14.40
2023-03-15T01:42:22.672Z,9.30
2023-03-15T01:44:56.855Z,12.10
2023-03-15T01:47:28.625Z,10.95
2023-03-15T01:50:04.591Z,17.52
2023-03-15T01:52:40.858Z,13.45
2023-03-15T01:55:17.834Z,16.05
2023-03-15T01:57:51.594Z,11.70
2023-03-15T02:00:22.975Z,10.13
2023-03-15T02:02:56.012Z,9.82
2023-03-15T02:05:33.926Z,11.85
2023-03-15T02:08:05.537Z,7.90
2023-03-15T02:10:43.987Z,12.02
2023-03-15T02:13:16.988Z,13.95
2023-03-15T02:15:47.675Z,10.32
2023-03-15T02:18:19.284Z,9.48
2023-03-15T02:20:57.424Z,11.68
2023-03-15T02:23:28.240Z,13.50
2023-03-15T02:26:16.058Z,13.43
2023-03-15T02:28:49.474Z,14.10
2023-03-15T02:31:19.630Z,10.80
2023-03-15T02:33:53.393Z,10.10
2023-03-15T02:36:25.932Z,14.18
2023-03-15T02:38:57.951Z,13.82
2023-03-15T02:41:33.007Z,14.77
2023-03-15T02:44:10.292Z,15.05
2023-03-15T02:46:41.315Z,11.90
2023-03-15T02:49:12.352Z,9.55
2023-03-15T02:51:42.228Z,13.82
2023-03-15T02:54:12.266Z,13.30
2023-03-15T02:56:42.148Z,11.88
2023-03-15T02:59:14.996Z,11.48
2023-03-15T03:01:46.057Z,10.43
2023-03-15T03:04:15.992Z,10.35
2023-03-15T03:06:45.873Z,13.75
2023-03-15T03:09:15.854Z,14.05
2023-03-15T03:11:45.794Z,13.95
2023-03-15T03:14:18.239Z,9.70
2023-03-15T03:16:48.404Z,10.68
2023-03-15T03:19:18.360Z,17.80
2023-03-15T03:21:48.201Z,13.13
2023-03-15T03:24:18.159Z,11.00
2023-03-15T03:26:48.664Z,10.02
2023-03-15T03:29:21.103Z,15.90
2023-03-15T03:31:50.977Z,14.15
2023-03-15T03:34:20.937Z,14.70
2023-03-15T03:36:51.278Z,11.27
2023-03-15T03:39:21.230Z,10.10
2023-03-15T03:41:51.106Z,11.82
2023-03-15T03:44:23.554Z,9.95
2023-03-15T03:46:53.443Z,10.95
2023-03-15T03:49:23.276Z,17.67
2023-03-15T03:51:53.178Z,8.88
2023-03-15T03:54:24.783Z,8.77
2023-03-15T03:56:54.702Z,9.15
2023-03-15T03:59:27.232Z,12.30
2023-03-15T04:01:57.086Z,14.68
2023-03-15T04:04:26.976Z,14.27
2023-03-15T04:06:56.854Z,13.05
2023-03-15T04:09:26.754Z,17.13
2023-03-15T04:11:56.677Z,9.20
2023-03-15T04:14:29.264Z,15.77
2023-03-15T04:16:59.131Z,16.33
2023-03-15T04:19:29.423Z,9.52
2023-03-15T04:21:59.491Z,12.93
2023-03-15T04:24:29.367Z,14.75
2023-03-15T04:26:59.416Z,12.15
2023-03-15T04:29:32.245Z,10.93
2023-03-15T04:32:02.295Z,13.93
2023-03-15T04:34:32.797Z,14.80
2023-03-15T04:37:02.645Z,13.77
2023-03-15T04:39:32.765Z,17.65
2023-03-15T04:42:03.240Z,13.75
2023-03-15T04:44:35.722Z,13.65
2023-03-15T04:47:05.701Z,9.70
2023-03-15T04:49:35.606Z,10.30
2023-03-15T04:52:05.610Z,12.35
2023-03-15T04:54:35.649Z,10.93
2023-03-15T04:57:05.571Z,9.52
2023-03-15T04:59:38.012Z,9.82
2023-03-15T05:02:08.083Z,12.75
2023-03-15T05:04:37.959Z,10.50
2023-03-15T05:07:08.170Z,14.23
2023-03-15T05:09:39.978Z,13.13
2023-03-15T05:12:11.139Z,11.88
2023-03-15T05:14:44.232Z,9.90
2023-03-15T05:17:15.498Z,9.82
2023-03-15T05:19:46.198Z,10.18
2023-03-15T05:22:16.081Z,13.00
2023-03-15T05:24:46.200Z,12.77
2023-03-15T05:27:16.071Z,10.15
2023-03-15T05:29:48.656Z,15.32
2023-03-15T05:32:18.585Z,11.75
2023-03-15T05:34:48.467Z,10.80
2023-03-15T05:37:18.428Z,8.98
2023-03-15T05:39:48.327Z,20.23
2023-03-15T05:42:22.166Z,15.95
2023-03-15T05:44:54.945Z,12.47
2023-03-15T05:47:25.680Z,15.02
2023-03-15T05:49:55.730Z,10.60
2023-03-15T05:52:26.432Z,17.65
2023-03-15T05:54:56.447Z,10.73
2023-03-15T05:57:26.427Z,12.48
2023-03-15T05:59:58.899Z,12.48
2023-03-15T06:02:29.019Z,15.80
2023-03-15T06:04:58.995Z,18.42
2023-03-15T06:07:29.040Z,13.50
2023-03-15T06:09:59.414Z,14.18
2023-03-15T06:12:29.452Z,12.25
2023-03-15T06:15:01.911Z,11.35
2023-03-15T06:17:31.952Z,12.80
2023-03-15T06:20:01.949Z,14.68
2023-03-15T06:22:32.164Z,14.93
2023-03-15T06:25:03.630Z,13.52
2023-03-15T06:27:33.741Z,15.02
2023-03-15T06:30:07.962Z,12.07
2023-03-15T06:32:37.897Z,12.75
2023-03-15T06:35:09.352Z,13.35
2023-03-15T06:37:39.413Z,14.50
2023-03-15T06:40:11.945Z,15.25
2023-03-15T06:42:43.138Z,13.18
2023-03-15T06:45:16.546Z,12.68
2023-03-15T06:47:46.723Z,13.85
2023-03-15T06:50:17.057Z,15.50
2023-03-15T06:52:47.164Z,15.73
2023-03-15T06:55:18.638Z,15.73
2023-03-15T06:57:48.722Z,15.02
2023-03-15T07:00:22.895Z,17.95
2023-03-15T07:02:53.027Z,15.73
2023-03-15T07:05:23.200Z,17.20
2023-03-15T07:07:53.274Z,13.57
2023-03-15T07:10:23.860Z,12.85
2023-03-15T07:12:54.034Z,10.88
2023-03-15T07:15:26.823Z,14.80
2023-03-15T07:17:56.893Z,14.70
2023-03-15T07:20:26.951Z,12.18
2023-03-15T07:22:57.622Z,11.40
2023-03-15T07:25:27.989Z,14.45
2023-03-15T07:27:58.028Z,13.05
2023-03-15T07:30:30.739Z,14.63
2023-03-15T07:33:00.851Z,15.25
2023-03-15T07:35:30.889Z,13.00
2023-03-15T07:38:00.820Z,18.75
2023-03-15T07:40:31.100Z,14.45
2023-03-15T07:43:01.080Z,12.88
2023-03-15T07:45:34.121Z,14.70
2023-03-15T07:48:04.447Z,14.13
2023-03-15T07:50:34.951Z,8.70
2023-03-15T07:53:05.952Z,10.70
2023-03-15T07:55:36.271Z,10.48
2023-03-15T07:58:06.665Z,19.45
2023-03-15T08:00:39.269Z,15.07
2023-03-15T08:03:09.669Z,17.02
2023-03-15T08:05:40.163Z,16.20
2023-03-15T08:08:10.509Z,15.13
2023-03-15T08:10:40.715Z,19.17
2023-03-15T08:13:11.199Z,12.75
2023-03-15T08:15:44.259Z,15.57
2023-03-15T08:18:14.357Z,17.20
2023-03-15T08:20:44.453Z,16.77
2023-03-15T08:23:16.760Z,13.57
2023-03-15T08:25:47.506Z,14.02
2023-03-15T08:28:17.837Z,13.60
2023-03-15T08:30:50.535Z,12.77
2023-03-15T08:33:22.363Z,10.40
2023-03-15T08:35:56.427Z,16.17
2023-03-15T08:38:26.643Z,15.60
2023-03-15T08:41:00.085Z,14.68
2023-03-15T08:43:30.591Z,14.38
2023-03-15T08:46:03.383Z,16.90
2023-03-15T08:48:34.289Z,18.90
2023-03-15T08:51:06.817Z,13.88
2023-03-15T08:53:37.808Z,14.13
2023-03-15T08:56:09.170Z,17.10
2023-03-15T08:58:39.279Z,12.73
2023-03-15T09:01:14.655Z,14.05
2023-03-15T09:03:45.322Z,18.45
2023-03-15T09:06:15.346Z,9.57
2023-03-15T09:08:45.680Z,15.30
2023-03-15T09:11:15.825Z,11.73
2023-03-15T09:13:45.901Z,12.75
2023-03-15T09:16:18.909Z,11.50
2023-03-15T09:18:49.016Z,13.70
2023-03-15T09:21:19.164Z,11.52
2023-03-15T09:23:49.142Z,12.25
2023-03-15T09:26:19.450Z,10.32
2023-03-15T09:28:49.647Z,16.10
2023-03-15T09:31:22.627Z,11.45
2023-03-15T09:33:52.970Z,11.65
2023-03-15T09:36:23.480Z,12.45
2023-03-15T09:38:53.549Z,12.40
2023-03-15T09:41:46.513Z,14.43
2023-03-15T09:44:38.389Z,10.57
2023-03-15T09:47:27.494Z,13.23
2023-03-15T09:50:02.833Z,15.25
2023-03-15T09:52:41.186Z,15.25
2023-03-15T09:55:18.901Z,15.90
2023-03-15T09:57:54.115Z,14.95
2023-03-15T10:00:30.999Z,16.42
2023-03-15T10:03:07.389Z,11.18
2023-03-15T10:05:44.492Z,12.63
2023-03-15T10:08:17.509Z,11.73
2023-03-15T10:10:54.807Z,10.75
2023-03-15T10:13:46.218Z,13.25
2023-03-15T10:16:35.367Z,14.32
2023-03-15T10:19:18.796Z,10.32
2023-03-15T10:22:00.948Z,14.07
2023-03-15T10:24:40.023Z,13.60
2023-03-15T10:27:22.928Z,12.93
2023-03-15T10:29:55.948Z,11.32
2023-03-15T10:32:31.403Z,13.70
2023-03-15T10:35:05.215Z,11.73
2023-03-15T10:37:36.331Z,10.10
2023-03-15T10:40:10.943Z,9.13
2023-03-15T10:42:41.282Z,10.80
2023-03-15T10:45:25.258Z,11.90
2023-03-15T10:48:00.655Z,9.13
2023-03-15T10:50:36.182Z,11.00
2023-03-15T10:53:13.793Z,11.38
2023-03-15T10:55:47.552Z,9.10
2023-03-15T10:58:31.617Z,8.23
2023-03-15T11:01:07.731Z,9.55
2023-03-15T11:03:39.260Z,12.07
2023-03-15T11:06:27.131Z,8.10
2023-03-15T11:08:57.542Z,12.43
2023-03-15T11:11:27.605Z,8.20
2023-03-15T11:14:03.696Z,9.82
2023-03-15T11:16:38.598Z,8.55
2023-03-15T11:19:18.290Z,11.98
2023-03-15T11:21:53.611Z,8.40
2023-03-15T11:24:29.367Z,12.48
2023-03-15T11:27:03.361Z,12.65
2023-03-15T11:29:35.779Z,11.90
2023-03-15T11:32:15.802Z,4.63
2023-03-15T11:34:51.803Z,6.95
2023-03-15T11:37:29.958Z,8.27
2023-03-15T11:40:12.080Z,5.95
2023-03-15T11:42:51.229Z,7.82
2023-03-15T11:45:31.445Z,9.65
2023-03-15T11:48:07.020Z,7.75
2023-03-15T11:50:39.196Z,9.07
2023-03-15T11:53:15.727Z,8.18
2023-03-15T11:55:53.698Z,11.32
2023-03-15T11:58:36.822Z,7.57
2023-03-15T12:01:09.724Z,7.78
2023-03-15T12:03:43.979Z,5.97
2023-03-15T12:06:37.600Z,7.95
2023-03-15T12:09:52.570Z,8.38
2023-03-15T12:12:41.669Z,7.15
2023-03-15T12:15:48.535Z,7.07
2023-03-15T12:18:32.976Z,6.78
2023-03-15T12:21:17.372Z,9.40
2023-03-15T12:24:01.696Z,8.73
2023-03-15T12:26:44.968Z,8.95
2023-03-15T12:29:26.090Z,8.00
2023-03-15T12:32:01.640Z,7.93
2023-03-15T12:34:47.648Z,6.97
2023-03-15T12:37:23.250Z,8.18
2023-03-15T12:40:01.950Z,8.38
2023-03-15T12:43:05.374Z,9.65
2023-03-15T12:45:43.698Z,9.45
2023-03-15T12:48:28.327Z,6.97
2023-03-15T12:51:04.998Z,7.82
2023-03-15T12:53:55.047Z,6.68
2023-03-15T12:56:50.622Z,11.82
2023-03-15T12:59:33.552Z,8.80
2023-03-15T13:02:06.832Z,9.63
2023-03-15T13:04:37.647Z,6.30
2023-03-15T13:07:31.701Z,7.95
2023-03-15T13:10:43.113Z,8.02
2023-03-15T13:13:35.904Z,3.75
2023-03-15T13:16:22.869Z,6.45
2023-03-15T13:19:05.506Z,5.75
2023-03-15T13:21:39.167Z,9.02
2023-03-15T13:24:17.580Z,7.28
2023-03-15T13:26:57.872Z,10.25
2023-03-15T13:29:33.291Z,7.15
2023-03-15T13:32:16.472Z,6.82
2023-03-15T13:34:50.155Z,9.05
2023-03-15T13:37:25.835Z,8.85
2023-03-15T13:39:59.146Z,6.82
2023-03-15T13:42:29.641Z,7.63
2023-03-15T13:45:20.956Z,5.85
2023-03-15T13:47:53.907Z,7.20
2023-03-15T13:50:25.332Z,7.57
2023-03-15T13:52:55.698Z,5.63
2023-03-15T13:55:27.273Z,4.63
2023-03-15T13:58:02.545Z,6.80
2023-03-15T14:00:36.779Z,6.13
2023-03-15T14:03:16.793Z,9.13
2023-03-15T14:05:50.549Z,9.93
2023-03-15T14:08:25.900Z,6.68
2023-03-15T14:11:10.178Z,8.02
2023-03-15T14:13:53.349Z,9.00
2023-03-15T14:16:40.266Z,7.35
2023-03-15T14:19:25.717Z,5.40
2023-03-15T14:21:58.641Z,9.15
2023-03-15T14:24:33.574Z,5.18
2023-03-15T14:27:08.557Z,10.50
2023-03-15T14:29:41.922Z,13.38
2023-03-15T14:32:29.597Z,11.50
2023-03-15T14:35:09.088Z,10.63
2023-03-15T14:37:42.705Z,9.73
2023-03-15T14:40:22.578Z,6.93
2023-03-15T14:42:53.881Z,8.05
2023-03-15T14:45:27.514Z,6.22
2023-03-15T14:48:04.386Z,9.32
2023-03-15T14:50:40.925Z,10.00
2023-03-15T14:53:15.422Z,7.40
2023-03-15T14:55:45.857Z,8.50
2023-03-15T14:58:18.790Z,6.38
2023-03-15T15:00:52.257Z,5.60
2023-03-15T15:03:28.937Z,10.85
2023-03-15T15:06:02.788Z,7.65
2023-03-15T15:08:38.575Z,10.23
2023-03-15T15:11:11.185Z,7.15
2023-03-15T15:13:42.806Z,7.38
2023-03-15T15:16:13.573Z,6.65
2023-03-15T15:18:43.795Z,6.28
2023-03-15T15:21:24.011Z,7.00
2023-03-15T15:23:58.924Z,6.75
2023-03-15T15:26:32.047Z,9.65
2023-03-15T15:29:03.474Z,5.53
2023-03-15T15:31:35.818Z,7.68
2023-03-15T15:34:06.317Z,7.85
2023-03-15T15:36:42.245Z,8.27
2023-03-15T15:39:24.466Z,4.78
2023-03-15T15:41:55.038Z,5.97
2023-03-15T15:44:28.442Z,3.28
2023-03-15T15:47:00.721Z,15.02
2023-03-15T15:49:31.117Z,11.70
2023-03-15T15:52:04.510Z,3.70
2023-03-15T15:54:35.908Z,4.75
2023-03-15T15:57:07.386Z,5.85
2023-03-15T15:59:37.886Z,4.63
2023-03-15T16:02:22.332Z,3.85
2023-03-15T16:04:53.045Z,5.15
2023-03-15T16:07:27.420Z,8.00
2023-03-15T16:10:00.675Z,4.65
2023-03-15T16:12:32.905Z,4.78
2023-03-15T16:15:04.114Z,6.55
2023-03-15T16:17:34.757Z,8.80
2023-03-15T16:20:07.174Z,6.78
2023-03-15T16:22:41.753Z,7.20
2023-03-15T16:25:17.732Z,7.13
2023-03-15T16:27:48.255Z,6.70
2023-03-15T16:30:25.168Z,8.02
2023-03-15T16:32:56.160Z,4.38
2023-03-15T16:35:29.274Z,11.25
2023-03-15T16:38:02.797Z,9.32
2023-03-15T16:40:36.322Z,7.10
2023-03-15T16:43:08.857Z,7.10
2023-03-15T16:45:38.975Z,5.13
2023-03-15T16:48:09.611Z,4.35
2023-03-15T16:50:40.992Z,8.05
2023-03-15T16:53:16.165Z,4.68
2023-03-15T16:55:46.303Z,3.63
2023-03-15T16:58:23.187Z,4.95
2023-03-15T17:00:53.488Z,20.60
2023-03-15T17:03:24.076Z,8.25
2023-03-15T17:05:54.392Z,1.75
2023-03-15T17:08:27.619Z,3.47
2023-03-15T17:10:58.027Z,2.75
2023-03-15T17:13:32.868Z,5.05
2023-03-15T17:16:03.285Z,8.18
2023-03-15T17:18:34.873Z,10.27
2023-03-15T17:21:05.541Z,8.02
2023-03-15T17:23:38.305Z,6.95
2023-03-15T17:26:13.478Z,4.60
2023-03-15T17:28:44.293Z,6.63
2023-03-15T17:31:25.137Z,8.25
2023-03-15T17:33:56.400Z,9.65
2023-03-15T17:36:28.927Z,4.78
2023-03-15T17:39:02.815Z,5.53
2023-03-15T17:41:35.124Z,5.07
2023-03-15T17:44:05.447Z,5.15
2023-03-15T17:46:35.765Z,4.20
2023-03-15T17:49:09.063Z,5.78
2023-03-15T17:51:41.304Z,9.57
2023-03-15T17:54:20.686Z,7.57
2023-03-15T17:56:51.451Z,8.13
2023-03-15T17:59:21.400Z,8.43
2023-03-15T18:01:51.967Z,7.95
2023-03-15T18:04:23.988Z,9.80
2023-03-15T18:06:55.472Z,24.02
2023-03-15T18:09:28.611Z,33.67
2023-03-15T18:11:58.565Z,22.80
2023-03-15T18:14:30.971Z,10.45
2023-03-15T18:17:01.390Z,9.85
2023-03-15T18:19:31.747Z,9.52
2023-03-15T18:22:01.944Z,10.38
2023-03-15T18:24:34.880Z,9.45
2023-03-15T18:27:05.378Z,8.57
2023-03-15T18:29:36.045Z,11.80
2023-03-15T18:32:06.427Z,7.40
2023-03-15T18:34:36.788Z,9.65
2023-03-15T18:37:07.137Z,12.00
2023-03-15T18:39:40.635Z,11.70
2023-03-15T18:42:12.320Z,8.38
2023-03-15T18:44:44.181Z,7.22
2023-03-15T18:47:14.578Z,7.65
2023-03-15T18:49:44.933Z,8.23
2023-03-15T18:52:18.005Z,7.53
2023-03-15T18:54:52.206Z,7.40
2023-03-15T18:57:22.728Z,7.18
2023-03-15T18:59:52.917Z,10.75
2023-03-15T19:02:23.468Z,7.05
2023-03-15T19:04:53.909Z,7.90
2023-03-15T19:07:24.621Z,8.95
2023-03-15T19:09:57.310Z,6.53
2023-03-15T19:12:27.747Z,6.15
2023-03-15T19:14:58.009Z,8.00
2023-03-15T19:17:28.344Z,8.80
2023-03-15T19:19:58.592Z,9.90
2023-03-15T19:22:31.120Z,9.07
2023-03-15T19:25:04.340Z,9.75
2023-03-15T19:27:35.774Z,15.25
2023-03-15T19:30:09.051Z,11.10
2023-03-15T19:32:40.648Z,10.82
2023-03-15T19:35:12.991Z,7.57
2023-03-15T19:37:44.624Z,10.63
2023-03-15T19:40:18.975Z,7.22
2023-03-15T19:42:49.894Z,10.20
2023-03-15T19:45:21.621Z,18.13
2023-03-15T19:47:52.407Z,8.85
2023-03-15T19:50:22.961Z,13.38
2023-03-15T19:52:53.589Z,10.68
2023-03-15T19:55:29.559Z,11.38
2023-03-15T19:58:01.183Z,29.70
2023-03-15T20:00:31.725Z,53.92
2023-03-15T20:03:02.029Z,36.45
2023-03-15T20:05:32.107Z,14.63
2023-03-15T20:08:02.299Z,11.20
2023-03-15T20:10:35.375Z,8.15
2023-03-15T20:13:05.869Z,12.70
2023-03-15T20:15:36.060Z,12.63
2023-03-15T20:18:08.266Z,11.95
2023-03-15T20:20:38.627Z,16.05
2023-03-15T20:23:08.672Z,11.20
2023-03-15T20:25:42.380Z,12.82
2023-03-15T20:28:12.664Z,13.25
2023-03-15T20:30:44.307Z,7.95
2023-03-15T20:33:15.398Z,12.23
2023-03-15T20:35:45.555Z,11.50
2023-03-15T20:38:15.849Z,10.60
2023-03-15T20:40:48.642Z,9.95
2023-03-15T20:43:18.703Z,12.75
2023-03-15T20:45:48.890Z,9.57
2023-03-15T20:48:22.326Z,11.35
2023-03-15T20:50:52.558Z,13.90
2023-03-15T20:53:23.188Z,11.50
2023-03-15T20:55:56.640Z,10.38
2023-03-15T20:58:26.898Z,12.98
2023-03-15T21:01:06.073Z,27.00
2023-03-15T21:03:36.884Z,14.00
2023-03-15T21:06:08.883Z,14.10
2023-03-15T21:08:39.350Z,11.18
2023-03-15T21:11:12.524Z,14.85
2023-03-15T21:13:42.587Z,17.02
2023-03-15T21:16:15.432Z,15.73
2023-03-15T21:18:51.793Z,10.88
2023-03-15T21:21:23.186Z,13.32
2023-03-15T21:23:54.329Z,9.45
2023-03-15T21:26:26.984Z,11.95
2023-03-15T21:28:57.029Z,12.05
2023-03-15T21:31:27.164Z,12.05
2023-03-15T21:33:57.174Z,9.68
2023-03-15T21:36:27.226Z,11.95
2023-03-15T21:38:57.317Z,13.30
2023-03-15T21:41:31.771Z,15.48
2023-03-15T21:44:01.811Z,16.73
2023-03-15T21:46:31.982Z,10.65
2023-03-15T21:49:02.208Z,18.10
2023-03-15T21:51:34.162Z,13.82
2023-03-15T21:54:04.931Z,13.88
2023-03-15T21:56:37.646Z,15.02
2023-03-15T21:59:07.759Z,15.25
2023-03-15T22:01:38.382Z,15.63
2023-03-15T22:04:08.929Z,18.40
2023-03-15T22:06:39.050Z,13.90
2023-03-15T22:09:09.535Z,13.93
2023-03-15T22:11:42.192Z,13.75
2023-03-15T22:14:12.388Z,14.07
2023-03-15T22:16:42.435Z,18.98
2023-03-15T22:19:12.828Z,13.52
2023-03-15T22:21:42.912Z,17.17
2023-03-15T22:24:13.412Z,12.35
2023-03-15T22:26:46.184Z,12.43
2023-03-15T22:29:16.199Z,13.60
2023-03-15T22:31:46.246Z,13.30
2023-03-15T22:34:16.347Z,17.50
2023-03-15T22:36:46.402Z,14.63
2023-03-15T22:39:17.082Z,13.75
2023-03-15T22:41:50.080Z,11.70
2023-03-15T22:44:20.380Z,12.75
2023-03-15T22:46:50.590Z,10.90
2023-03-15T22:49:20.812Z,11.73
2023-03-15T22:51:50.894Z,12.18
2023-03-15T22:54:21.393Z,13.40
2023-03-15T22:56:54.260Z,12.70
2023-03-15T22:59:29.014Z,11.70
2023-03-15T23:01:59.537Z,13.32
2023-03-15T23:04:29.814Z,13.07
2023-03-15T23:07:00.070Z,10.93
2023-03-15T23:09:29.967Z,15.32
2023-03-15T23:12:02.449Z,12.05
2023-03-15T23:14:32.354Z,11.73
2023-03-15T23:17:03.381Z,18.50
2023-03-15T23:19:35.992Z,10.77
2023-03-15T23:22:07.077Z,16.35
2023-03-15T23:24:37.019Z,15.13
2023-03-15T23:27:09.984Z,12.95
2023-03-15T23:29:53.306Z,14.00
2023-03-15T23:32:24.932Z,15.13
2023-03-15T23:34:55.240Z,12.45
2023-03-15T23:37:26.026Z,11.40
2023-03-15T23:39:56.056Z,12.50
2023-03-15T23:42:29.131Z,9.80
2023-03-15T23:44:59.696Z,10.27
2023-03-15T23:47:29.610Z,15.15
2023-03-15T23:49:59.491Z,9.63
2023-03-15T23:52:29.411Z,14.05
2023-03-15T23:54:59.276Z,14.65
2023-03-15T23:57:31.752Z,13.40
